Time,TemperatureF,DewpointF,PressureIn,WindDirection,WindDirectionDegrees,WindSpeedMPH,WindSpeedGustMPH,Humidity,HourlyPrecipIn,Conditions,Clouds,dailyrainin,SolarRadiationWatts/m^2,SoftwareType,DateUTC
2013-03-05 00:01:00,39.2,34.2,30.07,NW,317,13.0,13.0,82,0.00,,,0.00,0,Wunderground v.1.15,2013-03-05 06:01:00,
2013-03-05 00:07:00,39.1,34.1,30.07,NW,314,13.0,13.0,82,0.00,,,0.00,0,Wunderground v.1.15,2013-03-05 06:07:00,
2013-03-05 00:13:00,39.1,34.1,30.07,NNW,328,13.0,14.0,82,0.00,,,0.00,0,Wunderground v.1.15,2013-03-05 06:13:00,
2013-03-05 00:19:00,39.0,34.0,30.07,NNW,337,12.0,14.0,82,0.00,,,0.00,0,Wunderground v.1.15,2013-03-05 06:19:00,
2013-03-05 00:25:00,38.9,33.9,30.07,NW,314,12.0,14.0,82,0.00,,,0.00,0,Wunderground v.1.15,2013-03-05 06:25:00,
2013-03-05 00:31:00,38.8,33.8,30.08,NW,319,12.0,12.0,82,0.00,,,0.00,0,Wunderground v.1.15,2013-03-05 06:31:00,
2013-03-05 00:37:00,38.8,33.8,30.10,WNW,292,11.0,15.0,82,0.00,,,0.00,0,Wunderground v.1.15,2013-03-05 06:37:00,
2013-03-05 00:43:00,38.8,33.8,30.08,NW,318,12.0,15.0,82,0.00,,,0.00,0,Wunderground v.1.15,2013-03-05 06:43:00,
2013-03-05 00:49:00,38.8,33.8,30.08,NNW,327,12.0,12.0,82,0.00,,,0.00,0,Wunderground v.1.15,2013-03-05 06:49:00,
2013-03-05 00:55:00,38.8,33.5,30.07,NW,318,13.0,14.0,81,0.00,,,0.00,0,Wunderground v.1.15,2013-03-05 06:55:00,
2013-03-05 01:02:00,39.1,32.5,30.08,WNW,303,13.0,15.0,77,0.00,,,0.00,0,Wunderground v.1.15,2013-03-05 07:02:00,
2013-03-05 01:07:00,39.4,30.4,30.08,NNW,339,16.0,16.0,70,0.00,,,0.01,0,Wunderground v.1.15,2013-03-05 07:07:00,
2013-03-05 01:13:00,39.7,29.6,30.08,NNW,337,18.0,20.0,67,0.00,,,0.01,0,Wunderground v.1.15,2013-03-05 07:13:00,
2013-03-05 01:19:00,39.8,29.4,30.08,NNW,341,18.0,19.0,66,0.00,,,0.01,0,Wunderground v.1.15,2013-03-05 07:19:00,
2013-03-05 01:25:00,39.7,28.9,30.08,NNW,339,17.0,25.0,65,0.00,,,0.01,0,Wunderground v.1.15,2013-03-05 07:25:00,
2013-03-05 01:31:00,39.5,27.2,30.09,NNW,331,18.0,20.0,61,0.00,,,0.01,0,Wunderground v.1.15,2013-03-05 07:31:00,
2013-03-05 01:37:00,39.3,26.6,30.09,NNW,333,19.0,19.0,60,0.00,,,0.01,0,Wunderground v.1.15,2013-03-05 07:37:00,
2013-03-05 01:43:00,39.1,25.6,30.09,NW,323,19.0,19.0,58,0.00,,,0.01,0,Wunderground v.1.15,2013-03-05 07:43:00,
2013-03-05 01:49:00,38.9,24.9,30.10,NNW,328,19.0,24.0,57,0.00,,,0.01,0,Wunderground v.1.15,2013-03-05 07:49:00,
2013-03-05 01:55:00,38.6,24.7,30.10,NNW,328,20.0,24.0,57,0.00,,,0.01,0,Wunderground v.1.15,2013-03-05 07:55:00,
2013-03-05 02:01:00,38.4,24.9,30.11,NNW,335,20.0,24.0,58,0.00,,,0.01,0,Wunderground v.1.15,2013-03-05 08:01:00,
2013-03-05 02:07:00,38.1,25.0,30.11,NW,314,20.0,20.0,59,0.00,,,0.01,0,Wunderground v.1.15,2013-03-05 08:07:00,
2013-03-05 02:13:00,37.9,24.8,30.11,NNW,337,19.0,24.0,59,0.00,,,0.01,0,Wunderground v.1.15,2013-03-05 08:13:00,
2013-03-05 02:19:00,37.7,24.6,30.12,NNE,24,19.0,23.0,59,0.00,,,0.01,0,Wunderground v.1.15,2013-03-05 08:19:00,
2013-03-05 02:25:00,37.5,25.3,30.13,NW,309,18.0,23.0,61,0.00,,,0.01,0,Wunderground v.1.15,2013-03-05 08:25:00,
2013-03-05 02:31:00,37.2,24.6,30.14,NW,316,18.0,22.0,60,0.00,,,0.01,0,Wunderground v.1.15,2013-03-05 08:31:00,
2013-03-05 02:37:00,37.1,24.9,30.14,NW,326,19.0,21.0,61,0.00,,,0.01,0,Wunderground v.1.15,2013-03-05 08:37:00,
2013-03-05 02:43:00,36.8,24.6,30.14,NW,314,18.0,21.0,61,0.00,,,0.01,0,Wunderground v.1.15,2013-03-05 08:43:00,
2013-03-05 02:49:00,36.6,23.6,30.15,North,352,20.0,25.0,59,0.00,,,0.01,0,Wunderground v.1.15,2013-03-05 08:49:00,
2013-03-05 02:55:00,36.4,21.8,30.15,NW,325,21.0,25.0,55,0.00,,,0.01,0,Wunderground v.1.15,2013-03-05 08:55:00,
2013-03-05 03:01:00,36.2,21.6,30.15,North,2,22.0,24.0,55,0.00,,,0.01,0,Wunderground v.1.15,2013-03-05 09:01:00,
2013-03-05 03:07:00,35.9,21.7,30.16,NNW,334,18.0,18.0,56,0.00,,,0.01,0,Wunderground v.1.15,2013-03-05 09:07:00,
2013-03-05 03:13:00,35.5,21.3,30.16,NNW,332,16.0,21.0,56,0.00,,,0.01,0,Wunderground v.1.15,2013-03-05 09:13:00,
2013-03-05 03:19:00,35.3,21.6,30.17,NW,323,15.0,21.0,57,0.00,,,0.01,0,Wunderground v.1.15,2013-03-05 09:19:00,
2013-03-05 03:25:00,35.1,21.4,30.17,NNW,329,16.0,21.0,57,0.00,,,0.01,0,Wunderground v.1.15,2013-03-05 09:25:00,
2013-03-05 03:31:00,34.9,20.8,30.18,NW,322,15.0,21.0,56,0.00,,,0.01,0,Wunderground v.1.15,2013-03-05 09:31:00,
2013-03-05 03:37:00,34.8,21.1,30.18,NNW,345,15.0,21.0,57,0.00,,,0.01,0,Wunderground v.1.15,2013-03-05 09:37:00,
2013-03-05 03:43:00,34.4,19.9,30.18,NNW,328,15.0,21.0,55,0.00,,,0.01,0,Wunderground v.1.15,2013-03-05 09:43:00,
2013-03-05 03:49:00,34.3,19.8,30.18,NNW,335,16.0,21.0,55,0.00,,,0.01,0,Wunderground v.1.15,2013-03-05 09:49:00,
2013-03-05 03:55:00,34.1,19.2,30.18,NNW,336,16.0,21.0,54,0.00,,,0.01,0,Wunderground v.1.15,2013-03-05 09:55:00,
2013-03-05 04:01:00,34.0,19.1,30.19,NW,324,15.0,21.0,54,0.00,,,0.01,0,Wunderground v.1.15,2013-03-05 10:01:00,
2013-03-05 04:07:00,33.8,18.9,30.19,NNW,334,15.0,15.0,54,0.00,,,0.01,0,Wunderground v.1.15,2013-03-05 10:07:00,
2013-03-05 04:13:00,33.7,18.8,30.20,NW,318,16.0,21.0,54,0.00,,,0.01,0,Wunderground v.1.15,2013-03-05 10:13:00,
2013-03-05 04:19:00,33.7,20.1,30.20,NNW,347,15.0,21.0,57,0.00,,,0.01,0,Wunderground v.1.15,2013-03-05 10:19:00,
2013-03-05 04:27:00,33.4,20.2,30.20,NW,314,12.0,12.0,58,0.00,,,0.01,0,Wunderground v.1.15,2013-03-05 10:27:00,
2013-03-05 04:33:00,33.2,19.2,30.20,NW,325,15.0,21.0,56,0.00,,,0.01,0,Wunderground v.1.15,2013-03-05 10:33:00,
2013-03-05 04:39:00,33.1,18.2,30.21,NW,314,18.0,28.0,54,0.00,,,0.01,0,Wunderground v.1.15,2013-03-05 10:39:00,
2013-03-05 04:45:00,33.1,17.8,30.21,NW,318,20.0,28.0,53,0.00,,,0.01,0,Wunderground v.1.15,2013-03-05 10:45:00,
2013-03-05 04:51:00,32.9,17.2,30.21,NNW,330,21.0,24.0,52,0.00,,,0.01,0,Wunderground v.1.15,2013-03-05 10:51:00,
2013-03-05 04:57:00,32.8,17.5,30.21,NW,319,21.0,21.0,53,0.00,,,0.01,0,Wunderground v.1.15,2013-03-05 10:57:00,
2013-03-05 05:03:00,32.7,17.9,30.21,NNW,334,19.0,21.0,54,0.00,,,0.01,0,Wunderground v.1.15,2013-03-05 11:03:00,
2013-03-05 05:09:00,32.5,17.7,30.21,NNW,331,17.0,21.0,54,0.00,,,0.01,0,Wunderground v.1.15,2013-03-05 11:09:00,
2013-03-05 05:15:00,32.4,17.6,30.22,NW,306,15.0,21.0,54,0.00,,,0.01,0,Wunderground v.1.15,2013-03-05 11:15:00,
2013-03-05 05:21:00,32.2,17.4,30.22,NNW,331,14.0,21.0,54,0.00,,,0.01,0,Wunderground v.1.15,2013-03-05 11:21:00,
2013-03-05 05:27:00,32.1,17.3,30.22,NNW,347,14.0,21.0,54,0.00,,,0.01,0,Wunderground v.1.15,2013-03-05 11:27:00,
2013-03-05 05:33:00,31.9,17.1,30.22,NW,326,15.0,21.0,54,0.00,,,0.01,0,Wunderground v.1.15,2013-03-05 11:33:00,
2013-03-05 05:39:00,31.7,16.9,30.22,NNW,337,14.0,21.0,54,0.00,,,0.01,0,Wunderground v.1.15,2013-03-05 11:39:00,
2013-03-05 05:45:00,31.6,17.3,30.22,NW,318,12.0,21.0,55,0.00,,,0.01,0,Wunderground v.1.15,2013-03-05 11:45:00,
2013-03-05 05:51:00,31.5,17.2,30.22,WNW,302,12.0,21.0,55,0.00,,,0.01,0,Wunderground v.1.15,2013-03-05 11:51:00,
2013-03-05 05:57:00,31.4,17.5,30.22,NNW,333,12.0,12.0,56,0.00,,,0.01,0,Wunderground v.1.15,2013-03-05 11:57:00,
2013-03-05 06:03:00,31.4,17.1,30.22,NNW,335,12.0,21.0,55,0.00,,,0.01,0,Wunderground v.1.15,2013-03-05 12:03:00,
2013-03-05 06:09:00,31.3,17.0,30.23,NNW,327,12.0,21.0,55,0.00,,,0.01,0,Wunderground v.1.15,2013-03-05 12:09:00,
2013-03-05 06:15:00,31.3,17.4,30.23,WNW,299,11.0,21.0,56,0.00,,,0.01,0,Wunderground v.1.15,2013-03-05 12:15:00,
2013-03-05 06:21:00,31.2,17.3,30.23,WNW,296,10.0,21.0,56,0.00,,,0.01,0,Wunderground v.1.15,2013-03-05 12:21:00,
2013-03-05 06:27:00,31.1,17.6,30.23,NNW,331,9.0,21.0,57,0.00,,,0.01,0,Wunderground v.1.15,2013-03-05 12:27:00,
2013-03-05 06:33:00,31.0,17.5,30.24,NW,322,10.0,21.0,57,0.00,,,0.01,0,Wunderground v.1.15,2013-03-05 12:33:00,
2013-03-05 06:39:00,30.9,17.0,30.24,NW,312,12.0,21.0,56,0.00,,,0.01,0,Wunderground v.1.15,2013-03-05 12:39:00,
2013-03-05 06:45:00,30.9,17.4,30.24,NW,325,10.0,21.0,57,0.00,,,0.01,0,Wunderground v.1.15,2013-03-05 12:45:00,
2013-03-05 06:51:00,30.9,17.4,30.23,NW,310,9.0,21.0,57,0.00,,,0.01,0,Wunderground v.1.15,2013-03-05 12:51:00,
2013-03-05 06:57:00,30.7,17.7,30.23,WNW,290,8.0,8.0,58,0.00,,,0.01,7,Wunderground v.1.15,2013-03-05 12:57:00,
2013-03-05 07:03:00,30.6,18.0,30.23,WNW,294,8.0,21.0,59,0.00,,,0.01,11,Wunderground v.1.15,2013-03-05 13:03:00,
2013-03-05 07:09:00,30.5,18.3,30.24,NW,307,9.0,21.0,60,0.00,,,0.01,16,Wunderground v.1.15,2013-03-05 13:09:00,
2013-03-05 07:15:00,30.4,18.5,30.23,WNW,301,8.0,21.0,61,0.00,,,0.01,19,Wunderground v.1.15,2013-03-05 13:15:00,
2013-03-05 07:21:00,30.4,18.9,30.24,WNW,291,8.0,21.0,62,0.00,,,0.01,28,Wunderground v.1.15,2013-03-05 13:21:00,
2013-03-05 07:27:00,30.5,19.0,30.24,WNW,287,9.0,21.0,62,0.00,,,0.01,39,Wunderground v.1.15,2013-03-05 13:27:00,
2013-03-05 07:33:00,30.6,19.1,30.25,WNW,287,9.0,21.0,62,0.00,,,0.01,54,Wunderground v.1.15,2013-03-05 13:33:00,
2013-03-05 07:39:00,30.9,19.0,30.25,WNW,291,10.0,11.0,61,0.00,,,0.01,72,Wunderground v.1.15,2013-03-05 13:39:00,
2013-03-05 07:45:00,31.2,19.3,30.25,WNW,290,11.0,21.0,61,0.00,,,0.01,90,Wunderground v.1.15,2013-03-05 13:45:00,
2013-03-05 07:51:00,31.4,19.1,30.25,WNW,291,12.0,21.0,60,0.00,,,0.01,113,Wunderground v.1.15,2013-03-05 13:51:00,
2013-03-05 07:57:00,31.6,19.3,30.26,NNW,335,11.0,11.0,60,0.00,,,0.01,135,Wunderground v.1.15,2013-03-05 13:57:00,
2013-03-05 08:03:00,31.8,19.5,30.27,WNW,288,12.0,21.0,60,0.00,,,0.01,160,Wunderground v.1.15,2013-03-05 14:03:00,
2013-03-05 08:09:00,32.0,18.9,30.27,NW,315,13.0,21.0,58,0.00,,,0.01,183,Wunderground v.1.15,2013-03-05 14:09:00,
2013-03-05 08:15:00,32.3,19.2,30.27,NNW,335,12.0,21.0,58,0.00,,,0.01,211,Wunderground v.1.15,2013-03-05 14:15:00,
2013-03-05 08:21:00,32.5,19.3,30.28,WNW,298,13.0,21.0,58,0.00,,,0.01,229,Wunderground v.1.15,2013-03-05 14:21:00,
2013-03-05 08:29:00,32.8,18.8,30.28,NW,321,16.0,21.0,56,0.00,,,0.01,257,Wunderground v.1.15,2013-03-05 14:29:00,
2013-03-05 08:35:00,33.0,18.1,30.28,NNW,328,17.0,24.0,54,0.00,,,0.01,278,Wunderground v.1.15,2013-03-05 14:35:00,
2013-03-05 08:41:00,33.1,18.7,30.29,NW,318,20.0,26.0,55,0.00,,,0.01,297,Wunderground v.1.15,2013-03-05 14:41:00,
2013-03-05 08:47:00,33.3,18.4,30.29,NNW,336,20.0,20.0,54,0.00,,,0.01,316,Wunderground v.1.15,2013-03-05 14:47:00,
2013-03-05 08:53:00,33.5,18.6,30.29,WNW,286,18.0,21.0,54,0.00,,,0.01,336,Wunderground v.1.15,2013-03-05 14:53:00,
2013-03-05 08:59:00,33.7,18.8,30.30,West,280,17.0,21.0,54,0.00,,,0.01,355,Wunderground v.1.15,2013-03-05 14:59:00,
2013-03-05 09:05:00,33.9,19.0,30.30,NW,321,13.0,21.0,54,0.00,,,0.01,373,Wunderground v.1.15,2013-03-05 15:05:00,
2013-03-05 09:11:00,34.0,18.6,30.30,NW,322,15.0,17.0,53,0.00,,,0.01,394,Wunderground v.1.15,2013-03-05 15:11:00,
2013-03-05 09:17:00,34.1,18.7,30.30,NNW,331,16.0,22.0,53,0.00,,,0.01,411,Wunderground v.1.15,2013-03-05 15:17:00,
2013-03-05 09:23:00,34.1,18.3,30.30,NW,319,18.0,22.0,52,0.00,,,0.01,413,Wunderground v.1.15,2013-03-05 15:23:00,
2013-03-05 09:29:00,34.2,18.4,30.30,WNW,301,19.0,21.0,52,0.00,,,0.01,450,Wunderground v.1.15,2013-03-05 15:29:00,
2013-03-05 09:35:00,34.4,19.0,30.29,NW,318,18.0,21.0,53,0.00,,,0.01,469,Wunderground v.1.15,2013-03-05 15:35:00,
2013-03-05 09:41:00,34.6,18.8,30.30,NW,311,18.0,21.0,52,0.00,,,0.01,485,Wunderground v.1.15,2013-03-05 15:41:00,
2013-03-05 09:47:00,34.8,18.5,30.30,NW,309,19.0,19.0,51,0.00,,,0.01,503,Wunderground v.1.15,2013-03-05 15:47:00,
2013-03-05 09:53:00,34.8,18.5,30.29,NW,306,20.0,26.0,51,0.00,,,0.01,522,Wunderground v.1.15,2013-03-05 15:53:00,
2013-03-05 09:59:00,35.0,19.1,30.30,NW,326,19.0,21.0,52,0.00,,,0.01,536,Wunderground v.1.15,2013-03-05 15:59:00,
2013-03-05 10:05:00,35.5,20.0,30.30,WNW,283,17.0,21.0,53,0.00,,,0.01,550,Wunderground v.1.15,2013-03-05 16:05:00,
2013-03-05 10:11:00,35.7,19.8,30.31,NW,306,16.0,21.0,52,0.00,,,0.01,566,Wunderground v.1.15,2013-03-05 16:11:00,
2013-03-05 10:17:00,36.0,20.5,30.30,NW,314,16.0,23.0,53,0.00,,,0.01,582,Wunderground v.1.15,2013-03-05 16:17:00,
2013-03-05 10:23:00,36.2,19.8,30.31,NNW,337,17.0,23.0,51,0.00,,,0.01,592,Wunderground v.1.15,2013-03-05 16:23:00,
2013-03-05 10:29:00,36.3,20.3,30.31,NW,326,16.0,21.0,52,0.00,,,0.01,612,Wunderground v.1.15,2013-03-05 16:29:00,
2013-03-05 10:35:00,36.5,20.1,30.31,NNW,333,15.0,21.0,51,0.00,,,0.01,624,Wunderground v.1.15,2013-03-05 16:35:00,
2013-03-05 10:41:00,36.4,19.0,30.31,NW,312,20.0,26.0,49,0.00,,,0.01,638,Wunderground v.1.15,2013-03-05 16:41:00,
2013-03-05 10:47:00,36.1,18.3,30.31,NW,316,23.0,23.0,48,0.00,,,0.01,652,Wunderground v.1.15,2013-03-05 16:47:00,
2013-03-05 10:53:00,36.1,18.8,30.31,NW,324,22.0,23.0,49,0.00,,,0.01,663,Wunderground v.1.15,2013-03-05 16:53:00,
2013-03-05 10:59:00,36.4,19.5,30.31,WNW,299,21.0,23.0,50,0.00,,,0.01,673,Wunderground v.1.15,2013-03-05 16:59:00,
2013-03-05 11:05:00,37.1,21.5,30.30,NW,322,20.0,23.0,53,0.00,,,0.01,682,Wunderground v.1.15,2013-03-05 17:05:00,
2013-03-05 11:11:00,37.8,20.8,30.30,NNW,333,20.0,23.0,50,0.00,,,0.01,696,Wunderground v.1.15,2013-03-05 17:11:00,
2013-03-05 11:17:00,37.6,20.1,30.30,NW,306,18.0,21.0,49,0.00,,,0.01,703,Wunderground v.1.15,2013-03-05 17:17:00,
2013-03-05 11:23:00,37.4,20.0,30.30,NNW,329,17.0,21.0,49,0.00,,,0.01,714,Wunderground v.1.15,2013-03-05 17:23:00,
2013-03-05 11:29:00,37.6,20.1,30.31,NW,315,19.0,21.0,49,0.00,,,0.01,724,Wunderground v.1.15,2013-03-05 17:29:00,
2013-03-05 11:35:00,37.7,20.2,30.31,NW,312,20.0,21.0,49,0.00,,,0.01,729,Wunderground v.1.15,2013-03-05 17:35:00,
2013-03-05 11:41:00,38.0,19.5,30.31,WNW,301,18.0,23.0,47,0.00,,,0.01,738,Wunderground v.1.15,2013-03-05 17:41:00,
2013-03-05 11:47:00,38.2,20.2,30.31,WNW,294,17.0,17.0,48,0.00,,,0.01,742,Wunderground v.1.15,2013-03-05 17:47:00,
2013-03-05 11:53:00,38.4,20.9,30.31,NW,304,15.0,21.0,49,0.00,,,0.01,749,Wunderground v.1.15,2013-03-05 17:53:00,
2013-03-05 11:59:00,38.7,20.2,30.32,NW,311,16.0,21.0,47,0.00,,,0.01,754,Wunderground v.1.15,2013-03-05 17:59:00,
2013-03-05 12:05:00,39.0,21.4,30.31,NW,308,16.0,21.0,49,0.00,,,0.01,761,Wunderground v.1.15,2013-03-05 18:05:00,
2013-03-05 12:11:00,39.5,21.9,30.31,NNW,338,15.0,21.0,49,0.00,,,0.01,765,Wunderground v.1.15,2013-03-05 18:11:00,
2013-03-05 12:17:00,39.7,22.6,30.31,WNW,301,15.0,21.0,50,0.00,,,0.01,768,Wunderground v.1.15,2013-03-05 18:17:00,
2013-03-05 12:23:00,40.3,21.1,30.31,NW,308,16.0,21.0,46,0.00,,,0.01,772,Wunderground v.1.15,2013-03-05 18:23:00,
2013-03-05 12:29:00,39.8,20.2,30.31,West,273,16.0,21.0,45,0.00,,,0.01,773,Wunderground v.1.15,2013-03-05 18:29:00,
2013-03-05 12:35:00,40.1,22.0,30.31,NW,320,17.0,21.0,48,0.00,,,0.01,777,Wunderground v.1.15,2013-03-05 18:35:00,
2013-03-05 12:41:00,40.4,21.7,30.31,NW,310,17.0,21.0,47,0.00,,,0.01,775,Wunderground v.1.15,2013-03-05 18:41:00,
2013-03-05 12:47:00,40.6,22.4,30.31,NW,312,16.0,21.0,48,0.00,,,0.01,777,Wunderground v.1.15,2013-03-05 18:47:00,
2013-03-05 12:53:00,40.5,22.8,30.31,WNW,285,17.0,24.0,49,0.00,,,0.01,777,Wunderground v.1.15,2013-03-05 18:53:00,
2013-03-05 12:59:00,40.4,22.2,30.30,NW,326,15.0,22.0,48,0.00,,,0.01,775,Wunderground v.1.15,2013-03-05 18:59:00,
2013-03-05 13:05:00,40.7,22.0,30.31,NW,309,16.0,22.0,47,0.00,,,0.01,773,Wunderground v.1.15,2013-03-05 19:05:00,
2013-03-05 13:11:00,40.5,21.8,30.30,NW,308,16.0,21.0,47,0.00,,,0.01,768,Wunderground v.1.15,2013-03-05 19:11:00,
2013-03-05 13:17:00,40.8,23.1,30.30,NW,310,16.0,16.0,49,0.00,,,0.01,770,Wunderground v.1.15,2013-03-05 19:17:00,
2013-03-05 13:23:00,41.3,22.6,30.30,NNW,336,15.0,22.0,47,0.00,,,0.01,766,Wunderground v.1.15,2013-03-05 19:23:00,
2013-03-05 13:29:00,41.1,22.4,30.29,NNW,338,19.0,23.0,47,0.00,,,0.01,761,Wunderground v.1.15,2013-03-05 19:29:00,
2013-03-05 13:35:00,41.3,22.6,30.30,NNW,339,18.0,23.0,47,0.00,,,0.01,759,Wunderground v.1.15,2013-03-05 19:35:00,
2013-03-05 13:41:00,41.2,22.5,30.30,WNW,290,16.0,25.0,47,0.00,,,0.01,752,Wunderground v.1.15,2013-03-05 19:41:00,
2013-03-05 13:47:00,41.3,22.1,30.29,NW,304,15.0,22.0,46,0.00,,,0.01,745,Wunderground v.1.15,2013-03-05 19:47:00,
2013-03-05 13:53:00,41.8,24.0,30.29,NW,309,16.0,22.0,49,0.00,,,0.01,737,Wunderground v.1.15,2013-03-05 19:53:00,
2013-03-05 13:59:00,41.9,24.1,30.29,NW,310,16.0,21.0,49,0.00,,,0.01,731,Wunderground v.1.15,2013-03-05 19:59:00,
2013-03-05 14:05:00,41.6,21.8,30.29,WNW,292,17.0,21.0,45,0.00,,,0.01,722,Wunderground v.1.15,2013-03-05 20:05:00,
2013-03-05 14:11:00,41.3,22.1,30.29,NW,311,18.0,27.0,46,0.00,,,0.01,717,Wunderground v.1.15,2013-03-05 20:11:00,
2013-03-05 14:17:00,41.3,22.6,30.29,NW,320,19.0,19.0,47,0.00,,,0.01,707,Wunderground v.1.15,2013-03-05 20:17:00,
2013-03-05 14:23:00,41.2,21.4,30.29,NW,306,19.0,21.0,45,0.00,,,0.01,696,Wunderground v.1.15,2013-03-05 20:23:00,
2013-03-05 14:29:00,41.5,22.7,30.29,WNW,295,17.0,20.0,47,0.00,,,0.01,687,Wunderground v.1.15,2013-03-05 20:29:00,
2013-03-05 14:35:00,41.7,22.9,30.29,NNW,336,15.0,21.0,47,0.00,,,0.01,677,Wunderground v.1.15,2013-03-05 20:35:00,
2013-03-05 14:41:00,41.8,22.5,30.29,NW,310,16.0,23.0,46,0.00,,,0.01,670,Wunderground v.1.15,2013-03-05 20:41:00,
2013-03-05 14:47:00,41.6,22.3,30.29,NW,316,16.0,21.0,46,0.00,,,0.01,654,Wunderground v.1.15,2013-03-05 20:47:00,
2013-03-05 14:53:00,42.1,22.3,30.29,NW,313,16.0,23.0,45,0.00,,,0.01,643,Wunderground v.1.15,2013-03-05 20:53:00,
2013-03-05 14:59:00,42.0,22.7,30.29,NNW,340,17.0,21.0,46,0.00,,,0.01,628,Wunderground v.1.15,2013-03-05 20:59:00,
2013-03-05 15:05:00,41.7,21.9,30.29,NW,315,16.0,22.0,45,0.00,,,0.01,615,Wunderground v.1.15,2013-03-05 21:05:00,
2013-03-05 15:11:00,41.7,22.4,30.29,NW,306,15.0,21.0,46,0.00,,,0.01,599,Wunderground v.1.15,2013-03-05 21:11:00,
2013-03-05 15:17:00,42.0,23.7,30.29,NNW,336,14.0,21.0,48,0.00,,,0.01,585,Wunderground v.1.15,2013-03-05 21:17:00,
2013-03-05 15:23:00,42.5,24.2,30.29,NNW,334,15.0,21.0,48,0.00,,,0.01,568,Wunderground v.1.15,2013-03-05 21:23:00,
2013-03-05 15:29:00,42.5,23.2,30.29,NNW,333,15.0,21.0,46,0.00,,,0.01,557,Wunderground v.1.15,2013-03-05 21:29:00,
2013-03-05 15:35:00,42.4,23.6,30.29,NW,326,16.0,21.0,47,0.00,,,0.01,540,Wunderground v.1.15,2013-03-05 21:35:00,
2013-03-05 15:41:00,42.5,22.6,30.29,NNW,333,14.0,21.0,45,0.00,,,0.01,524,Wunderground v.1.15,2013-03-05 21:41:00,
2013-03-05 15:47:00,42.6,22.7,30.28,WNW,303,14.0,21.0,45,0.00,,,0.01,508,Wunderground v.1.15,2013-03-05 21:47:00,
2013-03-05 15:53:00,42.6,22.7,30.28,NNW,331,14.0,21.0,45,0.00,,,0.01,490,Wunderground v.1.15,2013-03-05 21:53:00,
2013-03-05 15:59:00,43.1,24.2,30.28,NW,314,15.0,21.0,47,0.00,,,0.01,476,Wunderground v.1.15,2013-03-05 21:59:00,
2013-03-05 16:05:00,43.1,22.1,30.28,NW,323,17.0,21.0,43,0.00,,,0.01,457,Wunderground v.1.15,2013-03-05 22:05:00,
2013-03-05 16:11:00,42.9,22.5,30.28,NW,317,17.0,21.0,44,0.00,,,0.01,438,Wunderground v.1.15,2013-03-05 22:11:00,
2013-03-05 16:17:00,42.8,21.8,30.28,NNW,341,16.0,16.0,43,0.00,,,0.01,420,Wunderground v.1.15,2013-03-05 22:17:00,
2013-03-05 16:23:00,42.7,22.3,30.28,NW,325,15.0,21.0,44,0.00,,,0.01,401,Wunderground v.1.15,2013-03-05 22:23:00,
2013-03-05 16:29:00,43.1,22.6,30.28,NNW,335,15.0,21.0,44,0.00,,,0.01,383,Wunderground v.1.15,2013-03-05 22:29:00,
2013-03-05 16:35:00,43.2,22.2,30.28,NNW,341,16.0,22.0,43,0.00,,,0.01,360,Wunderground v.1.15,2013-03-05 22:35:00,
2013-03-05 16:41:00,43.0,21.4,30.28,NNW,328,17.0,21.0,42,0.00,,,0.01,343,Wunderground v.1.15,2013-03-05 22:41:00,
2013-03-05 16:47:00,42.9,20.8,30.28,NNW,332,17.0,21.0,41,0.00,,,0.01,323,Wunderground v.1.15,2013-03-05 22:47:00,
2013-03-05 16:53:00,42.5,22.1,30.28,NNW,346,18.0,21.0,44,0.00,,,0.01,301,Wunderground v.1.15,2013-03-05 22:53:00,
2013-03-05 16:59:00,42.4,21.5,30.28,NW,322,17.0,21.0,43,0.00,,,0.01,285,Wunderground v.1.15,2013-03-05 22:59:00,
2013-03-05 17:05:00,42.3,21.9,30.28,North,352,17.0,21.0,44,0.00,,,0.01,264,Wunderground v.1.15,2013-03-05 23:05:00,
2013-03-05 17:11:00,42.2,22.4,30.28,NW,325,18.0,21.0,45,0.00,,,0.01,237,Wunderground v.1.15,2013-03-05 23:11:00,
2013-03-05 17:17:00,42.1,22.3,30.28,NW,323,18.0,21.0,45,0.00,,,0.01,213,Wunderground v.1.15,2013-03-05 23:17:00,
2013-03-05 17:25:00,41.8,22.0,30.29,NW,320,17.0,21.0,45,0.00,,,0.01,178,Wunderground v.1.15,2013-03-05 23:25:00,
2013-03-05 17:31:00,41.7,21.9,30.28,NNW,347,16.0,21.0,45,0.00,,,0.01,151,Wunderground v.1.15,2013-03-05 23:31:00,
2013-03-05 17:37:00,41.6,21.8,30.29,NNW,331,15.0,15.0,45,0.00,,,0.01,128,Wunderground v.1.15,2013-03-05 23:37:00,
2013-03-05 17:43:00,41.3,22.6,30.30,WNW,303,13.0,21.0,47,0.00,,,0.01,105,Wunderground v.1.15,2013-03-05 23:43:00,
2013-03-05 17:49:00,41.3,22.1,30.30,NNW,330,12.0,21.0,46,0.00,,,0.01,79,Wunderground v.1.15,2013-03-05 23:49:00,
2013-03-05 17:55:00,41.1,21.9,30.30,NW,317,13.0,21.0,46,0.00,,,0.01,62,Wunderground v.1.15,2013-03-05 23:55:00,
2013-03-05 18:01:00,40.8,21.6,30.30,NNW,332,13.0,16.0,46,0.00,,,0.01,40,Wunderground v.1.15,2013-03-06 00:01:00,
2013-03-05 18:07:00,40.4,21.7,30.30,NNW,329,12.0,12.0,47,0.00,,,0.01,25,Wunderground v.1.15,2013-03-06 00:07:00,
2013-03-05 18:13:00,40.2,21.6,30.30,WNW,303,11.0,21.0,47,0.00,,,0.01,16,Wunderground v.1.15,2013-03-06 00:13:00,
2013-03-05 18:19:00,40.1,21.5,30.31,NW,322,13.0,21.0,47,0.00,,,0.01,11,Wunderground v.1.15,2013-03-06 00:19:00,
2013-03-05 18:25:00,40.0,21.4,30.31,NW,320,12.0,21.0,47,0.00,,,0.01,7,Wunderground v.1.15,2013-03-06 00:25:00,
2013-03-05 18:31:00,39.8,21.2,30.31,NW,323,12.0,21.0,47,0.00,,,0.01,0,Wunderground v.1.15,2013-03-06 00:31:00,
2013-03-05 18:37:00,39.8,21.7,30.31,NW,322,13.0,21.0,48,0.00,,,0.01,0,Wunderground v.1.15,2013-03-06 00:37:00,
2013-03-05 18:43:00,39.6,21.5,30.32,NW,314,12.0,21.0,48,0.00,,,0.01,0,Wunderground v.1.15,2013-03-06 00:43:00,
2013-03-05 18:49:00,39.4,21.3,30.32,NNW,332,10.0,21.0,48,0.00,,,0.01,0,Wunderground v.1.15,2013-03-06 00:49:00,
2013-03-05 18:55:00,39.4,20.8,30.32,NW,326,9.0,21.0,47,0.00,,,0.01,0,Wunderground v.1.15,2013-03-06 00:55:00,
2013-03-05 19:01:00,39.2,21.1,30.33,NW,325,8.0,21.0,48,0.00,,,0.01,0,Wunderground v.1.15,2013-03-06 01:01:00,
2013-03-05 19:07:00,39.0,21.4,30.33,NW,309,9.0,21.0,49,0.00,,,0.01,0,Wunderground v.1.15,2013-03-06 01:07:00,
2013-03-05 19:13:00,38.8,21.3,30.32,NW,316,10.0,21.0,49,0.00,,,0.01,0,Wunderground v.1.15,2013-03-06 01:13:00,
2013-03-05 19:19:00,38.7,21.2,30.33,NW,314,10.0,21.0,49,0.00,,,0.01,0,Wunderground v.1.15,2013-03-06 01:19:00,
2013-03-05 19:25:00,38.5,21.5,30.32,NNW,328,9.0,21.0,50,0.00,,,0.01,0,Wunderground v.1.15,2013-03-06 01:25:00,
2013-03-05 19:31:00,38.4,21.8,30.32,NNW,343,10.0,21.0,51,0.00,,,0.01,0,Wunderground v.1.15,2013-03-06 01:31:00,
2013-03-05 19:37:00,38.2,21.6,30.33,NW,326,10.0,10.0,51,0.00,,,0.01,0,Wunderground v.1.15,2013-03-06 01:37:00,
2013-03-05 19:43:00,38.1,21.5,30.33,NW,316,9.0,21.0,51,0.00,,,0.01,0,Wunderground v.1.15,2013-03-06 01:43:00,
2013-03-05 19:49:00,38.0,21.5,30.33,NW,316,8.0,21.0,51,0.00,,,0.01,0,Wunderground v.1.15,2013-03-06 01:49:00,
2013-03-05 19:55:00,37.8,21.3,30.33,NW,321,7.0,21.0,51,0.00,,,0.01,0,Wunderground v.1.15,2013-03-06 01:55:00,
2013-03-05 20:01:00,37.7,21.6,30.33,NW,311,7.0,21.0,52,0.00,,,0.01,0,Wunderground v.1.15,2013-03-06 02:01:00,
2013-03-05 20:07:00,37.5,21.9,30.33,NW,322,8.0,8.0,53,0.00,,,0.01,0,Wunderground v.1.15,2013-03-06 02:07:00,
2013-03-05 20:13:00,37.4,21.8,30.33,NW,313,9.0,21.0,53,0.00,,,0.01,0,Wunderground v.1.15,2013-03-06 02:13:00,
2013-03-05 20:19:00,37.0,22.3,30.33,NW,306,7.0,21.0,55,0.00,,,0.01,0,Wunderground v.1.15,2013-03-06 02:19:00,
2013-03-05 20:25:00,36.6,21.9,30.34,NW,316,6.0,21.0,55,0.00,,,0.01,0,Wunderground v.1.15,2013-03-06 02:25:00,
2013-03-05 20:31:00,36.3,22.5,30.34,WNW,301,6.0,21.0,57,0.00,,,0.01,0,Wunderground v.1.15,2013-03-06 02:31:00,
2013-03-05 20:37:00,35.7,22.4,30.34,WNW,299,6.0,21.0,58,0.00,,,0.01,0,Wunderground v.1.15,2013-03-06 02:37:00,
2013-03-05 20:43:00,35.4,22.9,30.34,WNW,302,7.0,21.0,60,0.00,,,0.01,0,Wunderground v.1.15,2013-03-06 02:43:00,
2013-03-05 20:49:00,35.1,22.6,30.34,NW,305,6.0,21.0,60,0.00,,,0.01,0,Wunderground v.1.15,2013-03-06 02:49:00,
2013-03-05 20:55:00,35.2,22.7,30.34,WNW,292,6.0,21.0,60,0.00,,,0.01,0,Wunderground v.1.15,2013-03-06 02:55:00,
2013-03-05 21:01:00,35.0,22.9,30.34,NW,306,6.0,21.0,61,0.00,,,0.01,0,Wunderground v.1.15,2013-03-06 03:01:00,
2013-03-05 21:07:00,34.8,22.7,30.34,WNW,301,5.0,5.0,61,0.00,,,0.01,0,Wunderground v.1.15,2013-03-06 03:07:00,
2013-03-05 21:13:00,35.0,22.5,30.35,NW,313,5.0,21.0,60,0.00,,,0.01,0,Wunderground v.1.15,2013-03-06 03:13:00,
2013-03-05 21:19:00,35.3,22.4,30.35,NW,314,6.0,21.0,59,0.00,,,0.01,0,Wunderground v.1.15,2013-03-06 03:19:00,
2013-03-05 21:25:00,35.3,22.4,30.35,NW,306,6.0,21.0,59,0.00,,,0.01,0,Wunderground v.1.15,2013-03-06 03:25:00,
2013-03-05 21:31:00,35.0,22.1,30.35,NW,306,6.0,21.0,59,0.00,,,0.01,0,Wunderground v.1.15,2013-03-06 03:31:00,
2013-03-05 21:37:00,35.0,22.1,30.35,NW,316,5.0,21.0,59,0.00,,,0.01,0,Wunderground v.1.15,2013-03-06 03:37:00,
2013-03-05 21:43:00,35.0,22.5,30.36,NW,324,6.0,21.0,60,0.00,,,0.01,0,Wunderground v.1.15,2013-03-06 03:43:00,
2013-03-05 21:49:00,34.6,22.5,30.36,NW,326,7.0,21.0,61,0.00,,,0.01,0,Wunderground v.1.15,2013-03-06 03:49:00,
2013-03-05 21:55:00,34.0,22.3,30.37,NNW,328,5.0,21.0,62,0.00,,,0.01,0,Wunderground v.1.15,2013-03-06 03:55:00,
2013-03-05 22:01:00,33.5,22.2,30.36,NNW,330,5.0,21.0,63,0.00,,,0.01,0,Wunderground v.1.15,2013-03-06 04:01:00,
2013-03-05 22:07:00,33.3,22.4,30.36,NNW,336,6.0,21.0,64,0.00,,,0.01,0,Wunderground v.1.15,2013-03-06 04:07:00,
2013-03-05 22:13:00,33.1,22.2,30.36,NNW,333,6.0,21.0,64,0.00,,,0.01,0,Wunderground v.1.15,2013-03-06 04:13:00,
2013-03-05 22:19:00,32.9,22.4,30.37,NNW,335,6.0,21.0,65,0.00,,,0.01,0,Wunderground v.1.15,2013-03-06 04:19:00,
2013-03-05 22:25:00,32.7,22.2,30.37,NNW,335,5.0,21.0,65,0.00,,,0.01,0,Wunderground v.1.15,2013-03-06 04:25:00,
2013-03-05 22:31:00,32.7,22.2,30.37,NNW,334,5.0,21.0,65,0.00,,,0.01,0,Wunderground v.1.15,2013-03-06 04:31:00,
2013-03-05 22:37:00,32.7,22.2,30.37,NNW,335,5.0,21.0,65,0.00,,,0.01,0,Wunderground v.1.15,2013-03-06 04:37:00,
2013-03-05 22:43:00,32.5,22.0,30.37,NNW,335,5.0,21.0,65,0.00,,,0.01,0,Wunderground v.1.15,2013-03-06 04:43:00,
2013-03-05 22:49:00,32.1,22.0,30.37,NNW,337,5.0,21.0,66,0.00,,,0.01,0,Wunderground v.1.15,2013-03-06 04:49:00,
2013-03-05 22:55:00,31.0,22.0,30.37,NNW,338,5.0,21.0,69,0.00,,,0.01,0,Wunderground v.1.15,2013-03-06 04:55:00,
2013-03-05 23:01:00,31.0,21.7,30.37,NNW,339,5.0,21.0,68,0.00,,,0.01,0,Wunderground v.1.15,2013-03-06 05:01:00,
2013-03-05 23:03:00,31.2,21.9,30.37,NNW,339,5.0,21.0,68,0.00,,,0.01,0,Wunderground v.1.15,2013-03-06 05:03:00,
2013-03-05 23:05:00,31.3,22.0,30.37,NNW,339,5.0,21.0,68,0.00,,,0.01,0,Wunderground v.1.15,2013-03-06 05:05:00,
2013-03-05 23:11:00,31.0,21.7,30.37,NNW,339,5.0,21.0,68,0.00,,,0.01,0,Wunderground v.1.15,2013-03-06 05:11:00,
2013-03-05 23:17:00,31.2,21.9,30.38,NNW,339,4.0,4.0,68,0.00,,,0.01,0,Wunderground v.1.15,2013-03-06 05:17:00,
2013-03-05 23:23:00,31.3,22.0,30.37,NNW,339,3.0,21.0,68,0.00,,,0.01,0,Wunderground v.1.15,2013-03-06 05:23:00,
2013-03-05 23:29:00,31.5,21.8,30.37,NNW,339,4.0,21.0,67,0.00,,,0.01,0,Wunderground v.1.15,2013-03-06 05:29:00,
2013-03-05 23:35:00,31.8,21.7,30.37,NNW,338,4.0,21.0,66,0.00,,,0.01,0,Wunderground v.1.15,2013-03-06 05:35:00,
2013-03-05 23:41:00,31.7,21.6,30.37,NNW,338,4.0,21.0,66,0.00,,,0.01,0,Wunderground v.1.15,2013-03-06 05:41:00,
2013-03-05 23:47:00,31.6,21.5,30.37,NNW,338,4.0,21.0,66,0.00,,,0.01,0,Wunderground v.1.15,2013-03-06 05:47:00,
2013-03-05 23:53:00,31.4,21.3,30.37,NNW,338,4.0,21.0,66,0.00,,,0.01,0,Wunderground v.1.15,2013-03-06 05:53:00,
2013-03-05 23:59:00,31.1,21.4,30.37,NNW,338,4.0,21.0,67,0.00,,,0.00,0,Wunderground v.1.15,2013-03-06 05:59:00,